Kezdőlap
METAR-TAF:

METAR-TAF

Repülőterek :

Danbury Municipal Airport

Danbury, Connecticut, Amerikai Egyesült Államok

földrajzi szélesség: 41-22-18N, földrajzi hosszúság: 073-29-04W, magasság: 139 m

Jelenlegi meteorológiai megfigyelések

A jelentés 8 perccel ezelõtt készült, 14:53 UTC
Kelet-délkeleti szél 8 kt
Hőmérséklet 9°C
Páratartalom 71%
Légköri nyomás 1021 hPa
Látótávolság: 16.1 km
Borult 2800 lábon

METAR: KDXR 181453Z 12008KT 10SM OVC028 09/04 A3014 RMK AO2 SLP208 T00940039 56015

Idő: 11:01 (15:01 UTC)


TAF: hiányzik

Meteorológiai megfigyelések és előrejelzések több, mint 4000 repülőtéren (METAR és TAF jelentéseket).

A térképen piros és sárga pontok jelzik az elérhető meteorológiai állomásokat.

Mozgassa az egeret a pont fölött, hogy megjelenjen az állomás neve.

Azután kattintson az időjárási megfigyelések és előrejelzések megtekintéséhez.

A térkép megváltoztatása: kattintson a fekete keresztel jelölt zöld gombra ráközelítéshez, a vonallal jelölt zöld gombra távolításhoz, vagy a zöld nyilakra a szomszédos térképek eléréséhez.


METAR-TAF: